createdAt,value
2019-02-19T00:02:15.206Z,10.60
2019-02-19T00:04:41.495Z,10.60
2019-02-19T00:07:08.595Z,10.60
2019-02-19T00:09:35.120Z,10.60
2019-02-19T00:12:01.430Z,10.60
2019-02-19T00:14:27.925Z,10.60
2019-02-19T00:16:54.624Z,10.60
2019-02-19T00:19:20.851Z,10.70
2019-02-19T00:21:47.123Z,10.70
2019-02-19T00:24:13.515Z,10.80
2019-02-19T00:26:39.783Z,10.80
2019-02-19T00:29:06.052Z,10.90
2019-02-19T00:31:32.502Z,10.90
2019-02-19T00:33:58.786Z,10.90
2019-02-19T00:36:33.676Z,11.00
2019-02-19T00:39:00.105Z,11.10
2019-02-19T00:41:26.836Z,11.10
2019-02-19T00:43:53.043Z,11.10
2019-02-19T00:46:19.416Z,11.20
2019-02-19T00:48:45.695Z,11.20
2019-02-19T00:51:12.371Z,11.20
2019-02-19T00:53:38.661Z,11.30
2019-02-19T00:56:05.021Z,11.30
2019-02-19T00:58:31.284Z,11.30
2019-02-19T01:00:57.680Z,11.30
2019-02-19T01:03:24.962Z,11.30
2019-02-19T01:05:51.285Z,11.30
2019-02-19T01:08:18.179Z,11.30
2019-02-19T01:10:44.466Z,11.30
2019-02-19T01:13:10.792Z,11.30
2019-02-19T01:15:37.095Z,11.30
2019-02-19T01:18:03.441Z,11.40
2019-02-19T01:20:29.762Z,11.40
2019-02-19T01:22:56.053Z,11.40
2019-02-19T01:25:22.646Z,11.40
2019-02-19T01:27:49.256Z,11.40
2019-02-19T01:30:15.526Z,11.40
2019-02-19T01:32:41.809Z,11.40
2019-02-19T01:35:08.087Z,11.40
2019-02-19T01:37:34.487Z,11.40
2019-02-19T01:40:00.762Z,11.30
2019-02-19T01:42:27.138Z,11.30
2019-02-19T01:44:53.468Z,11.30
2019-02-19T01:47:19.734Z,11.30
2019-02-19T01:49:46.043Z,11.30
2019-02-19T01:52:12.359Z,11.30
2019-02-19T01:54:38.636Z,11.20
2019-02-19T01:57:04.933Z,11.20
2019-02-19T01:59:31.570Z,11.20
2019-02-19T02:01:58.002Z,11.20
2019-02-19T02:04:24.257Z,11.20
2019-02-19T02:06:50.581Z,11.10
2019-02-19T02:09:17.085Z,11.10
2019-02-19T02:11:43.416Z,11.10
2019-02-19T02:14:09.884Z,11.10
2019-02-19T02:16:36.268Z,11.00
2019-02-19T02:19:02.609Z,11.00
2019-02-19T02:21:28.862Z,11.00
2019-02-19T02:23:55.170Z,11.00
2019-02-19T02:26:21.460Z,11.00
2019-02-19T02:28:47.828Z,10.90
2019-02-19T02:31:14.060Z,10.90
2019-02-19T02:33:40.369Z,10.90
2019-02-19T02:36:06.729Z,10.90
2019-02-19T02:38:32.981Z,10.80
2019-02-19T02:40:59.376Z,10.80
2019-02-19T02:43:25.613Z,10.80
2019-02-19T02:45:53.694Z,10.70
2019-02-19T02:48:20.112Z,10.70
2019-02-19T02:50:46.538Z,10.70
2019-02-19T02:53:12.872Z,10.70
2019-02-19T02:55:39.098Z,10.70
2019-02-19T02:58:05.429Z,10.70
2019-02-19T03:00:31.758Z,10.60
2019-02-19T03:02:57.986Z,10.60
2019-02-19T03:05:25.394Z,10.60
2019-02-19T03:07:53.657Z,10.60
2019-02-19T03:10:19.949Z,10.50
2019-02-19T03:12:46.278Z,10.50
2019-02-19T03:15:14.298Z,10.50
2019-02-19T03:17:40.679Z,10.50
2019-02-19T03:20:07.132Z,10.50
2019-02-19T03:22:33.340Z,10.50
2019-02-19T03:24:59.667Z,10.50
2019-02-19T03:27:25.932Z,10.50
2019-02-19T03:29:52.201Z,10.50
2019-02-19T03:32:18.499Z,10.40
2019-02-19T03:34:44.887Z,10.40
2019-02-19T03:37:11.215Z,10.40
2019-02-19T03:39:37.548Z,10.40
2019-02-19T03:42:03.764Z,10.40
2019-02-19T03:44:30.047Z,10.40
2019-02-19T03:46:56.434Z,10.40
2019-02-19T03:49:23.085Z,10.40
2019-02-19T03:51:49.276Z,10.40
2019-02-19T03:54:15.566Z,10.30
2019-02-19T03:57:01.711Z,10.40
2019-02-19T03:59:28.259Z,10.30
2019-02-19T04:01:54.593Z,10.40
2019-02-19T04:04:21.229Z,10.40
2019-02-19T04:06:47.663Z,10.30
2019-02-19T04:09:15.169Z,10.30
2019-02-19T04:11:41.435Z,10.30
2019-02-19T04:14:07.716Z,10.30
2019-02-19T04:16:34.039Z,10.30
2019-02-19T04:19:00.340Z,10.30
2019-02-19T04:21:26.665Z,10.30
2019-02-19T04:23:52.923Z,10.30
2019-02-19T04:26:19.225Z,10.30
2019-02-19T04:28:47.242Z,10.30
2019-02-19T04:31:13.484Z,10.30
2019-02-19T04:33:39.767Z,10.30
2019-02-19T04:36:06.077Z,10.20
2019-02-19T04:38:32.367Z,10.20
2019-02-19T04:40:58.742Z,10.20
2019-02-19T04:43:25.030Z,10.20
2019-02-19T04:45:51.286Z,10.20
2019-02-19T04:48:17.556Z,10.20
2019-02-19T04:50:43.853Z,10.20
2019-02-19T04:53:10.119Z,10.20
2019-02-19T04:55:36.518Z,10.20
2019-02-19T04:58:02.817Z,10.20
2019-02-19T05:00:29.499Z,10.20
2019-02-19T05:02:55.818Z,10.10
2019-02-19T05:05:22.096Z,10.10
2019-02-19T05:07:48.478Z,10.10
2019-02-19T05:10:14.807Z,10.10
2019-02-19T05:12:41.036Z,10.10
2019-02-19T05:15:09.209Z,10.00
2019-02-19T05:17:35.530Z,10.00
2019-02-19T05:20:02.444Z,10.00
2019-02-19T05:22:28.747Z,10.00
2019-02-19T05:24:55.149Z,10.00
2019-02-19T05:27:21.475Z,10.00
2019-02-19T05:29:47.704Z,10.00
2019-02-19T05:32:14.135Z,10.00
2019-02-19T05:34:40.387Z,9.90
2019-02-19T05:37:06.797Z,9.90
2019-02-19T05:39:33.077Z,9.90
2019-02-19T05:41:59.377Z,9.90
2019-02-19T05:44:25.786Z,9.90
2019-02-19T05:46:52.158Z,9.90
2019-02-19T05:49:18.445Z,9.80
2019-02-19T05:51:44.742Z,9.80
2019-02-19T05:54:11.106Z,9.80
2019-02-19T05:56:37.333Z,9.80
2019-02-19T05:59:03.664Z,9.80
2019-02-19T06:01:29.929Z,9.80
2019-02-19T06:03:56.326Z,9.70
2019-02-19T06:06:22.622Z,9.70
2019-02-19T06:08:49.090Z,9.70
2019-02-19T06:11:15.398Z,9.70
2019-02-19T06:13:41.747Z,9.70
2019-02-19T06:16:07.983Z,9.60
2019-02-19T06:18:37.940Z,9.60
2019-02-19T06:21:04.300Z,9.60
2019-02-19T06:23:30.745Z,9.50
2019-02-19T06:25:57.231Z,9.50
2019-02-19T06:28:23.803Z,9.40
2019-02-19T06:30:50.338Z,9.40
2019-02-19T06:33:16.646Z,9.30
2019-02-19T06:35:42.999Z,9.30
2019-02-19T06:38:09.860Z,9.30
2019-02-19T06:40:36.211Z,9.30
2019-02-19T06:43:02.703Z,9.20
2019-02-19T06:45:29.002Z,9.10
2019-02-19T06:47:55.475Z,9.10
2019-02-19T06:50:21.803Z,9.10
2019-02-19T06:52:48.336Z,9.00
2019-02-19T06:55:14.879Z,9.00
2019-02-19T06:57:41.183Z,9.00
2019-02-19T07:00:10.494Z,8.90
2019-02-19T07:02:38.777Z,8.90
2019-02-19T07:05:05.949Z,8.90
2019-02-19T07:07:32.251Z,8.80
2019-02-19T07:09:58.536Z,8.80
2019-02-19T07:12:24.827Z,8.80
2019-02-19T07:14:51.150Z,8.80
2019-02-19T07:17:17.999Z,8.80
2019-02-19T07:19:44.423Z,8.70
2019-02-19T07:22:10.704Z,8.70
2019-02-19T07:24:37.821Z,8.70
2019-02-19T07:27:04.104Z,8.70
2019-02-19T07:29:30.555Z,8.70
2019-02-19T07:31:56.858Z,8.70
2019-02-19T07:34:23.192Z,8.70
2019-02-19T07:36:49.658Z,8.70
2019-02-19T07:39:15.987Z,8.70
2019-02-19T07:41:42.482Z,8.70
2019-02-19T07:44:08.792Z,8.80
2019-02-19T07:46:35.288Z,8.80
2019-02-19T07:49:01.633Z,8.80
2019-02-19T07:51:28.049Z,8.90
2019-02-19T07:53:54.384Z,8.90
2019-02-19T07:56:20.917Z,8.90
2019-02-19T07:58:47.586Z,9.00
2019-02-19T08:01:13.879Z,9.10
2019-02-19T08:03:40.528Z,9.10
2019-02-19T08:06:06.847Z,9.20
2019-02-19T08:08:33.143Z,9.20
2019-02-19T08:10:59.621Z,9.30
2019-02-19T08:13:25.956Z,9.30
2019-02-19T08:15:54.209Z,9.40
2019-02-19T08:18:20.551Z,9.40
2019-02-19T08:20:46.825Z,9.50
2019-02-19T08:23:13.128Z,9.50
2019-02-19T08:25:39.628Z,9.60
2019-02-19T08:28:06.179Z,9.70
2019-02-19T08:30:32.635Z,9.70
2019-02-19T08:32:59.043Z,9.80
2019-02-19T08:35:25.475Z,9.90
2019-02-19T08:37:51.923Z,10.00
2019-02-19T08:40:18.719Z,10.00
2019-02-19T08:42:45.068Z,10.10
2019-02-19T08:45:11.526Z,10.20
2019-02-19T08:47:42.697Z,10.20
2019-02-19T08:50:07.143Z,10.30
2019-02-19T08:52:33.575Z,10.40
2019-02-19T08:55:00.008Z,10.50
2019-02-19T08:57:26.440Z,10.60
2019-02-19T08:59:52.880Z,10.60
2019-02-19T09:02:19.308Z,10.70
2019-02-19T09:04:45.750Z,10.70
2019-02-19T09:07:12.171Z,10.80
2019-02-19T09:09:38.413Z,10.90
2019-02-19T09:12:04.748Z,10.90
2019-02-19T09:14:31.074Z,11.00
2019-02-19T09:16:57.501Z,11.00
2019-02-19T09:19:24.247Z,11.10
2019-02-19T09:21:50.619Z,11.10
2019-02-19T09:24:16.898Z,11.10
2019-02-19T09:26:43.487Z,11.20
2019-02-19T09:29:09.865Z,11.20
2019-02-19T09:31:36.299Z,11.30
2019-02-19T09:34:02.727Z,11.40
2019-02-19T09:36:29.160Z,11.40
2019-02-19T09:38:55.416Z,11.50
2019-02-19T09:41:22.932Z,11.60
2019-02-19T09:43:49.381Z,11.60
2019-02-19T09:46:15.813Z,11.70
2019-02-19T09:48:42.248Z,11.70
2019-02-19T09:51:08.576Z,11.70
2019-02-19T09:53:35.005Z,11.80
2019-02-19T09:56:01.310Z,11.80
2019-02-19T09:58:27.671Z,11.90
2019-02-19T10:00:54.100Z,12.00
2019-02-19T10:03:20.738Z,12.00
2019-02-19T10:05:48.141Z,12.10
2019-02-19T10:08:14.540Z,12.10
2019-02-19T10:10:42.548Z,12.20
2019-02-19T10:13:08.864Z,12.30
2019-02-19T10:15:35.590Z,12.30
2019-02-19T10:18:09.748Z,12.40
2019-02-19T10:20:30.042Z,12.50
2019-02-19T10:22:56.503Z,12.60
2019-02-19T10:25:22.779Z,12.60
2019-02-19T10:27:49.165Z,12.70
2019-02-19T10:30:18.950Z,12.80
2019-02-19T10:32:45.509Z,12.80
2019-02-19T10:35:13.474Z,12.90
2019-02-19T10:37:39.808Z,13.00
2019-02-19T10:40:09.807Z,13.00
2019-02-19T10:42:36.166Z,13.00
2019-02-19T10:45:05.961Z,13.00
2019-02-19T10:47:32.310Z,13.10
2019-02-19T10:49:58.735Z,13.10
2019-02-19T10:52:25.370Z,13.10
2019-02-19T10:54:51.702Z,13.20
2019-02-19T10:57:18.032Z,13.20
2019-02-19T10:59:44.465Z,13.20
2019-02-19T11:02:10.823Z,13.20
2019-02-19T11:04:37.329Z,13.20
2019-02-19T11:07:03.762Z,13.20
2019-02-19T11:09:30.094Z,13.20
2019-02-19T11:11:58.071Z,13.20
2019-02-19T11:14:24.606Z,13.20
2019-02-19T11:16:50.928Z,13.20
2019-02-19T11:19:17.490Z,13.20
2019-02-19T11:21:43.933Z,13.20
2019-02-19T11:24:10.435Z,13.20
2019-02-19T11:26:36.683Z,13.30
2019-02-19T11:29:03.298Z,13.30
2019-02-19T11:31:29.732Z,13.40
2019-02-19T11:33:56.065Z,13.40
2019-02-19T11:36:22.495Z,13.40
2019-02-19T11:38:48.798Z,13.50
2019-02-19T11:41:15.091Z,13.50
2019-02-19T11:43:41.552Z,13.50
2019-02-19T11:46:07.816Z,13.60
2019-02-19T11:48:36.921Z,13.70
2019-02-19T11:51:02.333Z,13.80
2019-02-19T11:53:28.980Z,13.80
2019-02-19T11:55:55.306Z,14.00
2019-02-19T11:58:22.022Z,14.00
2019-02-19T12:00:48.716Z,14.10
2019-02-19T12:03:15.093Z,14.10
2019-02-19T12:05:41.425Z,14.10
2019-02-19T12:08:07.755Z,14.10
2019-02-19T12:10:34.043Z,14.10
2019-02-19T12:13:00.326Z,14.20
2019-02-19T12:15:34.688Z,14.20
2019-02-19T12:17:54.817Z,14.30
2019-02-19T12:20:21.110Z,14.30
2019-02-19T12:22:47.924Z,14.40
2019-02-19T12:25:14.198Z,14.40
2019-02-19T12:27:40.828Z,14.40
2019-02-19T12:30:15.952Z,14.50
2019-02-19T12:32:42.363Z,14.50
2019-02-19T12:35:08.755Z,14.50
2019-02-19T12:37:35.079Z,14.60
2019-02-19T12:40:01.567Z,14.60
2019-02-19T12:42:27.886Z,14.70
2019-02-19T12:44:54.318Z,14.80
2019-02-19T12:47:20.603Z,14.90
2019-02-19T12:49:46.902Z,14.90
2019-02-19T12:52:13.533Z,15.00
2019-02-19T12:54:39.838Z,15.00
2019-02-19T12:57:06.122Z,15.00
2019-02-19T12:59:32.502Z,15.10
2019-02-19T13:01:58.731Z,15.10
2019-02-19T13:04:24.984Z,15.10
2019-02-19T13:06:51.307Z,15.20
2019-02-19T13:09:17.612Z,15.10
2019-02-19T13:11:44.054Z,15.10
2019-02-19T13:14:10.706Z,15.10
2019-02-19T13:16:37.019Z,15.10
2019-02-19T13:19:03.922Z,15.00
2019-02-19T13:21:30.313Z,15.00
2019-02-19T13:23:57.787Z,15.00
2019-02-19T13:26:24.183Z,15.00
2019-02-19T13:28:50.516Z,15.00
2019-02-19T13:31:16.845Z,15.00
2019-02-19T13:33:43.175Z,15.00
2019-02-19T13:36:10.622Z,15.00
2019-02-19T13:38:37.065Z,14.90
2019-02-19T13:41:03.498Z,14.90
2019-02-19T13:43:29.828Z,14.80
2019-02-19T13:45:56.061Z,14.80
2019-02-19T13:48:22.388Z,14.70
2019-02-19T13:50:48.718Z,14.70
2019-02-19T13:53:20.008Z,14.60
2019-02-19T13:55:48.214Z,14.50
2019-02-19T13:58:14.490Z,14.50
2019-02-19T14:00:42.703Z,14.40
2019-02-19T14:03:09.079Z,14.30
2019-02-19T14:05:35.504Z,14.30
2019-02-19T14:08:02.056Z,14.30
2019-02-19T14:10:28.698Z,14.30
2019-02-19T14:12:55.038Z,14.20
2019-02-19T14:15:40.105Z,14.20
2019-02-19T14:18:08.320Z,14.30
2019-02-19T14:20:36.510Z,14.30
2019-02-19T14:23:04.696Z,14.30
2019-02-19T14:25:49.567Z,14.30
2019-02-19T14:28:34.633Z,14.30
2019-02-19T14:31:11.817Z,14.30
2019-02-19T14:33:48.635Z,14.30
2019-02-19T14:36:12.727Z,14.30
2019-02-19T14:38:50.062Z,14.20
2019-02-19T14:41:35.041Z,14.20
2019-02-19T14:44:06.289Z,14.20
2019-02-19T14:46:37.401Z,14.20
2019-02-19T14:49:20.731Z,14.20
2019-02-19T14:51:51.892Z,14.20
2019-02-19T14:54:20.112Z,14.20
2019-02-19T14:56:48.443Z,14.20
2019-02-19T14:59:28.950Z,14.20
2019-02-19T15:01:57.167Z,14.20
2019-02-19T15:04:37.386Z,14.30
2019-02-19T15:07:13.444Z,14.30
2019-02-19T15:09:58.156Z,14.40
2019-02-19T15:12:32.386Z,14.40
2019-02-19T15:15:00.586Z,14.40
2019-02-19T15:17:31.801Z,14.40
2019-02-19T15:20:09.177Z,14.40
2019-02-19T15:22:46.423Z,14.40
2019-02-19T15:25:14.647Z,14.40
2019-02-19T15:27:45.819Z,14.40
2019-02-19T15:30:14.116Z,14.40
2019-02-19T15:32:42.330Z,14.30
2019-02-19T15:35:27.401Z,14.30
2019-02-19T15:38:15.038Z,14.30
2019-02-19T15:40:55.695Z,14.20
2019-02-19T15:43:32.887Z,14.10
2019-02-19T15:46:16.486Z,14.00
2019-02-19T15:48:47.417Z,13.90
2019-02-19T15:51:34.312Z,13.90
2019-02-19T15:54:02.536Z,13.80
2019-02-19T15:56:33.793Z,13.70
2019-02-19T15:59:04.758Z,13.60
2019-02-19T16:01:38.937Z,13.50
2019-02-19T16:04:12.954Z,13.40
2019-02-19T16:06:50.095Z,13.30
2019-02-19T16:09:18.300Z,13.30
2019-02-19T16:11:46.806Z,13.20
2019-02-19T16:14:20.801Z,13.10
2019-02-19T16:16:51.914Z,13.00
2019-02-19T16:19:35.133Z,12.90
2019-02-19T16:22:12.137Z,12.80
2019-02-19T16:24:57.417Z,12.70
2019-02-19T16:27:25.701Z,12.60
2019-02-19T16:29:59.927Z,12.50
2019-02-19T16:32:30.853Z,12.50
2019-02-19T16:34:59.138Z,12.40
2019-02-19T16:37:30.314Z,12.30
2019-02-19T16:40:15.447Z,12.20
2019-02-19T16:42:55.906Z,12.20
2019-02-19T16:45:33.091Z,12.10
2019-02-19T16:48:18.168Z,12.00
2019-02-19T16:50:46.330Z,11.90
2019-02-19T16:53:14.524Z,11.90
2019-02-19T16:55:48.824Z,11.80
2019-02-19T16:58:19.763Z,11.80
2019-02-19T17:00:56.948Z,11.70
2019-02-19T17:03:34.361Z,11.60
2019-02-19T17:06:02.720Z,11.60
2019-02-19T17:08:30.876Z,11.50
2019-02-19T17:11:00.174Z,11.40
2019-02-19T17:13:28.403Z,11.40
2019-02-19T17:16:13.230Z,11.40
2019-02-19T17:18:47.343Z,11.30
2019-02-19T17:21:21.576Z,11.20
2019-02-19T17:24:05.499Z,11.20
2019-02-19T17:26:33.774Z,11.10
2019-02-19T17:29:14.318Z,11.00
2019-02-19T17:31:42.625Z,11.00
2019-02-19T17:34:24.063Z,10.90
2019-02-19T17:36:55.001Z,10.90
2019-02-19T17:39:25.977Z,10.80
2019-02-19T17:41:54.206Z,10.70
2019-02-19T17:44:22.426Z,10.60
2019-02-19T17:46:50.616Z,10.60
2019-02-19T17:49:24.797Z,10.60
2019-02-19T17:51:53.004Z,10.50
2019-02-19T17:54:30.274Z,10.50
2019-02-19T17:57:15.037Z,10.40
2019-02-19T17:59:46.022Z,10.40
2019-02-19T18:02:14.209Z,10.30
2019-02-19T18:04:51.607Z,10.30
2019-02-19T18:07:37.941Z,10.20
2019-02-19T18:10:08.573Z,10.20
2019-02-19T18:12:36.750Z,10.10
2019-02-19T18:15:14.998Z,10.10
2019-02-19T18:17:46.199Z,10.10
2019-02-19T18:20:12.473Z,10.00
2019-02-19T18:22:38.860Z,10.00
2019-02-19T18:25:05.657Z,10.00
2019-02-19T18:27:31.929Z,10.00
2019-02-19T18:29:58.260Z,9.90
2019-02-19T18:32:24.590Z,9.90
2019-02-19T18:34:50.920Z,9.90
2019-02-19T18:37:17.189Z,9.90
2019-02-19T18:39:43.498Z,9.80
2019-02-19T18:42:09.795Z,9.80
2019-02-19T18:44:36.464Z,9.80
2019-02-19T18:47:02.743Z,9.80
2019-02-19T18:49:29.034Z,9.70
2019-02-19T18:51:55.658Z,9.80
2019-02-19T18:54:23.667Z,9.70
2019-02-19T18:56:50.044Z,9.70
2019-02-19T18:59:16.266Z,9.70
2019-02-19T19:01:42.555Z,9.70
2019-02-19T19:04:09.146Z,9.70
2019-02-19T19:06:35.555Z,9.60
2019-02-19T19:09:02.267Z,9.60
2019-02-19T19:11:28.543Z,9.60
2019-02-19T19:13:55.018Z,9.60
2019-02-19T19:16:21.330Z,9.60
2019-02-19T19:18:47.732Z,9.50
2019-02-19T19:21:14.029Z,9.50
2019-02-19T19:23:40.396Z,9.50
2019-02-19T19:26:06.724Z,9.50
2019-02-19T19:28:33.051Z,9.50
2019-02-19T19:30:59.334Z,9.50
2019-02-19T19:33:25.713Z,9.40
2019-02-19T19:35:51.942Z,9.40
2019-02-19T19:38:18.355Z,9.40
2019-02-19T19:40:44.708Z,9.40
2019-02-19T19:43:11.040Z,9.30
2019-02-19T19:45:37.366Z,9.30
2019-02-19T19:48:03.661Z,9.30
2019-02-19T19:50:29.992Z,9.30
2019-02-19T19:52:56.679Z,9.30
2019-02-19T19:55:23.101Z,9.30
2019-02-19T19:57:49.380Z,9.20
2019-02-19T20:00:15.794Z,9.20
2019-02-19T20:02:42.093Z,9.20
2019-02-19T20:05:09.103Z,9.10
2019-02-19T20:07:35.567Z,9.10
2019-02-19T20:10:02.112Z,9.10
2019-02-19T20:12:28.538Z,9.10
2019-02-19T20:14:54.813Z,9.10
2019-02-19T20:17:21.363Z,9.00
2019-02-19T20:19:47.556Z,9.00
2019-02-19T20:22:13.848Z,9.00
2019-02-19T20:24:40.173Z,8.90
2019-02-19T20:27:06.458Z,8.90
2019-02-19T20:29:32.758Z,8.90
2019-02-19T20:31:59.076Z,8.90
2019-02-19T20:34:25.405Z,8.90
2019-02-19T20:36:51.735Z,8.80
2019-02-19T20:39:18.167Z,8.80
2019-02-19T20:41:44.455Z,8.80
2019-02-19T20:44:10.727Z,8.80
2019-02-19T20:46:37.266Z,8.70
2019-02-19T20:49:03.559Z,8.70
2019-02-19T20:51:36.131Z,8.70
2019-02-19T20:53:58.516Z,8.70
2019-02-19T20:56:24.939Z,8.70
2019-02-19T20:58:51.331Z,8.60
2019-02-19T21:01:17.700Z,8.60
2019-02-19T21:03:44.199Z,8.60
2019-02-19T21:06:10.881Z,8.50
2019-02-19T21:08:37.205Z,8.50
2019-02-19T21:11:03.463Z,8.50
2019-02-19T21:13:29.795Z,8.50
2019-02-19T21:15:56.076Z,8.50
2019-02-19T21:18:22.422Z,8.50
2019-02-19T21:20:48.754Z,8.50
2019-02-19T21:23:14.961Z,8.50
2019-02-19T21:25:41.268Z,8.50
2019-02-19T21:28:07.640Z,8.50
2019-02-19T21:30:34.186Z,8.50
2019-02-19T21:33:00.607Z,8.50
2019-02-19T21:35:28.692Z,8.40
2019-02-19T21:37:55.011Z,8.50
2019-02-19T21:40:21.326Z,8.40
2019-02-19T21:42:47.593Z,8.40
2019-02-19T21:45:14.736Z,8.40
2019-02-19T21:47:41.456Z,8.40
2019-02-19T21:50:15.386Z,8.40
2019-02-19T21:52:41.640Z,8.40
2019-02-19T21:55:11.606Z,8.30
2019-02-19T21:57:37.991Z,8.30
2019-02-19T22:00:08.266Z,8.30
2019-02-19T22:02:34.513Z,8.30
2019-02-19T22:05:00.807Z,8.30
2019-02-19T22:07:27.153Z,8.30
2019-02-19T22:09:53.486Z,8.30
2019-02-19T22:12:19.818Z,8.30
2019-02-19T22:14:46.144Z,8.20
2019-02-19T22:17:12.693Z,8.20
2019-02-19T22:19:39.400Z,8.30
2019-02-19T22:22:07.694Z,8.20
2019-02-19T22:24:34.505Z,8.20
2019-02-19T22:27:01.813Z,8.30
2019-02-19T22:29:28.081Z,8.20
2019-02-19T22:31:54.288Z,8.20
2019-02-19T22:34:20.892Z,8.20
2019-02-19T22:36:47.221Z,8.20
2019-02-19T22:39:13.544Z,8.20
2019-02-19T22:41:39.792Z,8.20
2019-02-19T22:44:06.074Z,8.10
2019-02-19T22:46:32.376Z,8.10
2019-02-19T22:49:00.554Z,8.10
2019-02-19T22:51:26.830Z,8.10
2019-02-19T22:53:58.040Z,8.10
2019-02-19T22:56:26.226Z,8.10
2019-02-19T22:58:52.528Z,8.00
2019-02-19T23:01:30.073Z,8.00
2019-02-19T23:03:56.285Z,8.00
2019-02-19T23:06:22.559Z,8.00
2019-02-19T23:08:48.961Z,8.00
2019-02-19T23:11:15.158Z,8.00
2019-02-19T23:13:41.621Z,8.00
2019-02-19T23:16:07.821Z,7.90
2019-02-19T23:18:34.126Z,8.00
2019-02-19T23:21:00.524Z,7.90
2019-02-19T23:23:26.842Z,7.90
2019-02-19T23:25:53.123Z,7.90
2019-02-19T23:28:19.405Z,7.90
2019-02-19T23:30:46.052Z,7.90
2019-02-19T23:33:12.351Z,7.90
2019-02-19T23:35:43.304Z,7.80
2019-02-19T23:38:09.532Z,7.80
2019-02-19T23:40:35.817Z,7.80
2019-02-19T23:43:02.295Z,7.80
2019-02-19T23:45:28.569Z,7.80
2019-02-19T23:47:54.853Z,7.80
2019-02-19T23:50:21.199Z,7.80
2019-02-19T23:52:47.516Z,7.80
2019-02-19T23:55:13.741Z,7.80
2019-02-19T23:57:40.036Z,7.80
